Nevada City, CA (95959)

12:04 PM PST on February 11, 2016 (GMT -0800)
Cement Hill | | Change Station
CLOSE
Current Station
Personal Weather Station
Location: Nevada City, CA
Elevation: 2969 ft
Nearby Weather Stations

Elev 2969 ft 39.27 °N, 121.03 °W | Updated 5 minutes ago

Clear
Clear
70.2 °F
Feels Like 75 °F
N
2.7
Wind Variable Wind from SSW

Today
High -- | Low -- °F
--% Chance of Precip.
Yesterday
High -- | Low -- °F
Precip. -- in
Pressure 30.26 in
Visibility 10.0 miles
Clouds Clear
Heat Index 75 °F
Dew Point 34 °F
Humidity 26%
Rainfall 0.00 in
Snow Depth Not available.
7:01 AM 5:36 PM
Waxing Crescent, 14% visible
METAR KGOO 111955Z AUTO 13006KT 10SM CLR 20/M02 A3026 RMK AO1
Pressure 30.26 in
Visibility 10.0 miles
Clouds Clear
Heat Index 75 °F
Dew Point 34 °F
Humidity 26%
Rainfall 0.00 in
Snow Depth Not available.
7:01 AM 5:36 PM
Waxing Crescent, 14% visible
METAR KGOO 111955Z AUTO 13006KT 10SM CLR 20/M02 A3026 RMK AO1

10-Day Weather Forecast

Almanac

Astronomy

Feb. 11, 2016 Rise Set
Actual Time
Civil Twilight
Nautical Twilight
Astronomical Twilight
Moon
Length of Visible Light
Length of Day
Tomorrow will be .
, % of the Moon is Illuminated

Today's Extremes

State Highs State Lows

Community

WunderPhotos

Upload Photos

1,892,145 photos uploaded!

WunderBlog® & News

Nearby

Air Quality

  Air Quality AQ Index Pollutant
Not available.

Snow Depth

Station Depth Elevation

Earthquake Activity

City Distance Mag. Time & Date
Minimum magnitude displayed is 2.5.

Coastal Water Temperatures

Place Temperature

Stations

Nearby Weather Stations

Station Location Temp. Windchill Dew Point Humidity Wind Precip. Elev Updated Type
                   

Watches & Warnings

There are currently no watches in effect.